createdAt,value
2016-12-27T00:04:13.056Z,1025.16
2016-12-27T00:09:09.514Z,1025.34
2016-12-27T00:14:06.000Z,1025.29
2016-12-27T00:19:02.398Z,1025.17
2016-12-27T00:23:58.918Z,1025.17
2016-12-27T00:28:55.659Z,1025.31
2016-12-27T00:33:52.068Z,1025.40
2016-12-27T00:38:48.470Z,1025.48
2016-12-27T00:43:45.113Z,1025.51
2016-12-27T00:48:41.614Z,1025.48
2016-12-27T00:53:38.072Z,1025.66
2016-12-27T00:58:35.148Z,1025.75
2016-12-27T01:03:31.592Z,1025.81
2016-12-27T01:08:28.194Z,1025.77
2016-12-27T01:13:25.286Z,1025.94
2016-12-27T01:18:21.671Z,1025.84
2016-12-27T01:23:17.882Z,1025.99
2016-12-27T01:28:14.592Z,1026.11
2016-12-27T01:33:11.078Z,1026.15
2016-12-27T01:38:07.610Z,1026.33
2016-12-27T01:43:05.030Z,1026.30
2016-12-27T01:48:01.417Z,1026.40
2016-12-27T01:52:58.121Z,1026.66
2016-12-27T01:57:54.707Z,1026.46
2016-12-27T02:02:51.521Z,1026.64
2016-12-27T02:07:47.928Z,1026.42
2016-12-27T02:12:44.269Z,1026.39
2016-12-27T02:17:41.327Z,1026.45
2016-12-27T02:22:37.831Z,1026.53
2016-12-27T02:27:34.211Z,1026.60
2016-12-27T02:32:30.629Z,1026.64
2016-12-27T02:37:27.719Z,1026.65
2016-12-27T02:42:24.200Z,1026.65
2016-12-27T02:47:20.905Z,1026.69
2016-12-27T02:52:18.754Z,1026.66
2016-12-27T02:57:15.006Z,1026.57
2016-12-27T03:02:10.923Z,1026.59
2016-12-27T03:07:07.375Z,1026.69
2016-12-27T03:12:03.663Z,1026.82
2016-12-27T03:17:00.175Z,1026.96
2016-12-27T03:21:56.882Z,1027.01
2016-12-27T03:26:53.541Z,1026.96
2016-12-27T03:31:49.980Z,1026.94
2016-12-27T03:36:46.728Z,1027.25
2016-12-27T03:41:43.402Z,1027.28
2016-12-27T03:46:40.240Z,1027.44
2016-12-27T03:51:36.914Z,1027.44
2016-12-27T03:56:33.333Z,1027.47
2016-12-27T04:01:29.983Z,1027.49
2016-12-27T04:06:26.159Z,1027.62
2016-12-27T04:11:22.289Z,1027.60
2016-12-27T04:16:19.259Z,1027.54
2016-12-27T04:21:15.582Z,1027.66
2016-12-27T04:26:12.080Z,1027.71
2016-12-27T04:31:08.256Z,1027.76
2016-12-27T04:36:04.628Z,1027.84
2016-12-27T04:41:00.974Z,1028.02
2016-12-27T04:45:57.330Z,1028.06
2016-12-27T04:50:54.136Z,1028.19
2016-12-27T04:55:50.762Z,1028.19
2016-12-27T05:00:47.421Z,1028.25
2016-12-27T05:05:43.837Z,1028.28
2016-12-27T05:10:40.235Z,1028.14
2016-12-27T05:15:36.641Z,1028.17
2016-12-27T05:20:33.183Z,1028.22
2016-12-27T05:25:29.575Z,1028.28
2016-12-27T05:30:26.175Z,1028.44
2016-12-27T05:35:22.892Z,1028.55
2016-12-27T05:40:19.584Z,1028.55
2016-12-27T05:45:17.031Z,1028.61
2016-12-27T05:50:13.403Z,1028.64
2016-12-27T05:55:09.691Z,1028.69
2016-12-27T06:00:06.324Z,1028.82
2016-12-27T06:05:03.033Z,1028.89
2016-12-27T06:09:59.532Z,1028.98
2016-12-27T06:14:55.932Z,1029.15
2016-12-27T06:19:52.089Z,1029.15
2016-12-27T06:24:48.592Z,1029.33
2016-12-27T06:29:45.009Z,1029.46
2016-12-27T06:34:41.352Z,1029.54
2016-12-27T06:39:37.693Z,1029.58
2016-12-27T06:44:34.385Z,1029.65
2016-12-27T06:49:31.252Z,1029.69
2016-12-27T06:54:27.655Z,1029.60
2016-12-27T06:59:24.193Z,1029.66
2016-12-27T07:04:20.835Z,1029.77
2016-12-27T07:09:17.152Z,1029.68
2016-12-27T07:14:13.951Z,1029.80
2016-12-27T07:19:10.652Z,1029.73
2016-12-27T07:24:07.711Z,1029.72
2016-12-27T07:29:04.247Z,1029.87
2016-12-27T07:34:00.712Z,1029.93
2016-12-27T07:38:57.291Z,1030.03
2016-12-27T07:43:53.467Z,1030.10
2016-12-27T07:48:50.156Z,1030.21
2016-12-27T07:53:46.786Z,1030.40
2016-12-27T07:58:43.401Z,1030.52
2016-12-27T08:03:39.648Z,1030.71
2016-12-27T08:08:37.360Z,1030.68
2016-12-27T08:13:33.419Z,1030.76
2016-12-27T08:18:30.194Z,1030.78
2016-12-27T08:23:26.723Z,1030.82
2016-12-27T08:28:23.816Z,1030.99
2016-12-27T08:33:21.386Z,1031.07
2016-12-27T08:38:18.026Z,1031.25
2016-12-27T08:43:14.668Z,1031.23
2016-12-27T08:48:11.159Z,1031.33
2016-12-27T08:53:08.122Z,1031.24
2016-12-27T08:58:04.900Z,1031.40
2016-12-27T09:03:01.449Z,1031.33
2016-12-27T09:07:58.151Z,1031.31
2016-12-27T09:12:54.397Z,1031.38
2016-12-27T09:17:51.100Z,1031.50
2016-12-27T09:22:48.404Z,1031.69
2016-12-27T09:27:45.015Z,1031.86
2016-12-27T09:32:41.898Z,1031.79
2016-12-27T09:37:38.740Z,1031.87
2016-12-27T09:42:35.593Z,1031.88
2016-12-27T09:47:32.353Z,1031.76
2016-12-27T09:52:28.763Z,1031.98
2016-12-27T09:57:25.371Z,1031.83
2016-12-27T10:02:22.773Z,1031.79
2016-12-27T10:07:20.029Z,1031.81
2016-12-27T10:12:17.096Z,1031.64
2016-12-27T10:17:14.168Z,1031.81
2016-12-27T10:22:10.773Z,1031.85
2016-12-27T10:27:07.528Z,1031.86
2016-12-27T10:32:03.988Z,1031.91
2016-12-27T10:37:00.564Z,1031.93
2016-12-27T10:41:57.446Z,1031.94
2016-12-27T10:46:53.928Z,1032.04
2016-12-27T10:51:50.748Z,1032.16
2016-12-27T10:56:47.900Z,1032.02
2016-12-27T11:01:44.322Z,1032.01
2016-12-27T11:06:40.806Z,1032.28
2016-12-27T11:11:37.868Z,1031.88
2016-12-27T11:16:35.122Z,1032.12
2016-12-27T11:21:31.993Z,1032.16
2016-12-27T11:26:29.685Z,1032.17
2016-12-27T11:31:26.515Z,1032.26
2016-12-27T11:36:23.098Z,1032.24
2016-12-27T11:41:20.369Z,1032.56
2016-12-27T11:46:17.180Z,1032.59
2016-12-27T11:51:13.941Z,1032.71
2016-12-27T11:56:10.418Z,1032.50
2016-12-27T12:01:06.539Z,1032.68
2016-12-27T12:06:03.044Z,1032.69
2016-12-27T12:10:59.415Z,1032.64
2016-12-27T12:15:55.721Z,1032.67
2016-12-27T12:20:52.180Z,1032.71
2016-12-27T12:25:48.632Z,1032.69
2016-12-27T12:30:44.827Z,1032.85
2016-12-27T12:35:42.248Z,1032.81
2016-12-27T12:40:38.595Z,1032.84
2016-12-27T12:45:36.743Z,1032.91
2016-12-27T12:50:33.004Z,1032.79
2016-12-27T12:55:29.349Z,1033.02
2016-12-27T13:00:25.874Z,1032.99
2016-12-27T13:05:22.635Z,1032.99
2016-12-27T13:10:19.224Z,1032.96
2016-12-27T13:15:16.088Z,1032.91
2016-12-27T13:20:13.534Z,1032.85
2016-12-27T13:25:10.200Z,1033.04
2016-12-27T13:30:07.234Z,1032.97
2016-12-27T13:35:03.684Z,1032.87
2016-12-27T13:40:00.369Z,1033.03
2016-12-27T13:44:57.169Z,1033.17
2016-12-27T13:49:53.707Z,1033.35
2016-12-27T13:54:49.988Z,1033.41
2016-12-27T13:59:46.533Z,1033.56
2016-12-27T14:04:43.047Z,1033.62
2016-12-27T14:09:41.494Z,1033.54
2016-12-27T14:14:37.820Z,1033.57
2016-12-27T14:19:34.997Z,1033.74
2016-12-27T14:24:31.969Z,1033.81
2016-12-27T14:29:28.506Z,1033.95
2016-12-27T14:34:25.094Z,1033.95
2016-12-27T14:39:21.416Z,1033.82
2016-12-27T14:44:17.686Z,1033.87
2016-12-27T14:49:14.600Z,1034.01
2016-12-27T14:54:11.068Z,1034.11
2016-12-27T14:59:07.725Z,1034.06
2016-12-27T15:04:04.152Z,1034.08
2016-12-27T15:09:00.355Z,1034.13
2016-12-27T15:13:57.250Z,1034.12
2016-12-27T15:18:53.858Z,1034.09
2016-12-27T15:23:50.357Z,1034.18
2016-12-27T15:28:46.412Z,1034.10
2016-12-27T15:33:42.960Z,1034.06
2016-12-27T15:38:39.455Z,1034.21
2016-12-27T15:43:35.819Z,1034.11
2016-12-27T15:48:32.440Z,1034.33
2016-12-27T15:53:28.742Z,1034.31
2016-12-27T15:58:25.092Z,1034.42
2016-12-27T16:03:21.838Z,1034.38
2016-12-27T16:08:18.858Z,1034.43
2016-12-27T16:13:15.624Z,1034.49
2016-12-27T16:18:12.158Z,1034.58
2016-12-27T16:23:08.578Z,1034.61
2016-12-27T16:28:05.258Z,1034.60
2016-12-27T16:33:01.658Z,1034.68
2016-12-27T16:37:57.778Z,1034.68
2016-12-27T16:42:54.159Z,1034.74
2016-12-27T16:47:50.480Z,1034.91
2016-12-27T16:52:47.182Z,1034.81
2016-12-27T16:57:43.920Z,1034.87
2016-12-27T17:02:39.772Z,1034.90
2016-12-27T17:07:36.378Z,1034.91
2016-12-27T17:12:32.851Z,1034.90
2016-12-27T17:17:30.111Z,1034.93
2016-12-27T17:22:26.475Z,1034.91
2016-12-27T17:27:22.862Z,1034.94
2016-12-27T17:32:19.683Z,1034.90
2016-12-27T17:37:16.069Z,1035.09
2016-12-27T17:42:12.170Z,1035.10
2016-12-27T17:47:08.571Z,1034.98
2016-12-27T17:52:05.161Z,1035.07
2016-12-27T17:57:01.720Z,1035.18
2016-12-27T18:01:57.936Z,1035.19
2016-12-27T18:06:54.658Z,1035.27
2016-12-27T18:11:51.139Z,1035.33
2016-12-27T18:16:47.616Z,1035.35
2016-12-27T18:21:43.938Z,1035.41
2016-12-27T18:26:40.395Z,1035.35
2016-12-27T18:31:36.758Z,1035.44
2016-12-27T18:36:33.311Z,1035.33
2016-12-27T18:41:29.714Z,1035.37
2016-12-27T18:46:25.958Z,1035.41
2016-12-27T18:51:22.419Z,1035.40
2016-12-27T18:56:18.750Z,1035.47
2016-12-27T19:01:15.233Z,1035.52
2016-12-27T19:06:11.855Z,1035.50
2016-12-27T19:11:08.356Z,1035.49
2016-12-27T19:16:04.698Z,1035.57
2016-12-27T19:21:00.767Z,1035.70
2016-12-27T19:25:57.404Z,1035.69
2016-12-27T19:30:54.250Z,1035.73
2016-12-27T19:35:50.717Z,1035.74
2016-12-27T19:40:47.175Z,1035.71
2016-12-27T19:45:43.455Z,1035.61
2016-12-27T19:50:40.063Z,1035.65
2016-12-27T19:55:37.151Z,1035.77
2016-12-27T20:00:33.694Z,1035.74
2016-12-27T20:05:30.457Z,1035.96
2016-12-27T20:10:27.249Z,1035.99
2016-12-27T20:15:24.005Z,1035.88
2016-12-27T20:20:20.941Z,1036.00
2016-12-27T20:25:17.323Z,1036.04
2016-12-27T20:30:13.711Z,1035.99
2016-12-27T20:35:10.685Z,1035.88
2016-12-27T20:40:07.213Z,1036.02
2016-12-27T20:45:03.589Z,1036.03
2016-12-27T20:50:00.327Z,1036.10
2016-12-27T20:54:57.512Z,1036.11
2016-12-27T20:59:53.833Z,1036.12
2016-12-27T21:04:50.178Z,1036.08
2016-12-27T21:09:46.601Z,1036.12
2016-12-27T21:14:42.995Z,1036.17
2016-12-27T21:19:39.986Z,1036.17
2016-12-27T21:24:36.449Z,1036.16
2016-12-27T21:29:32.814Z,1036.15
2016-12-27T21:34:29.404Z,1036.16
2016-12-27T21:39:25.820Z,1036.18
2016-12-27T21:44:22.892Z,1036.24
2016-12-27T21:49:19.887Z,1036.23
2016-12-27T21:54:16.441Z,1036.46
2016-12-27T21:59:13.751Z,1036.44
2016-12-27T22:04:10.251Z,1036.36
2016-12-27T22:09:06.733Z,1036.45
2016-12-27T22:14:03.430Z,1036.44
2016-12-27T22:18:59.821Z,1036.43
2016-12-27T22:23:56.201Z,1036.55
2016-12-27T22:28:52.895Z,1036.44
2016-12-27T22:33:49.351Z,1036.28
2016-12-27T22:38:45.902Z,1036.35
2016-12-27T22:43:44.436Z,1036.46
2016-12-27T22:48:40.376Z,1036.43
2016-12-27T22:53:36.855Z,1036.52
2016-12-27T22:58:33.165Z,1036.72
2016-12-27T23:03:29.732Z,1036.72
2016-12-27T23:08:25.866Z,1036.73
2016-12-27T23:13:23.310Z,1036.82
2016-12-27T23:18:20.029Z,1036.70
2016-12-27T23:23:16.469Z,1036.82
2016-12-27T23:28:12.857Z,1036.81
2016-12-27T23:33:09.716Z,1036.83
2016-12-27T23:38:06.023Z,1036.80
2016-12-27T23:43:02.555Z,1036.81
2016-12-27T23:47:59.009Z,1036.78
2016-12-27T23:52:56.224Z,1036.85
2016-12-27T23:57:52.663Z,1036.98
